createdAt,value
2023-08-11T00:01:30.897Z,19.63
2023-08-11T00:03:58.460Z,10.18
2023-08-11T00:06:26.519Z,5.00
2023-08-11T00:08:56.455Z,5.40
2023-08-11T00:11:23.846Z,5.28
2023-08-11T00:13:50.774Z,5.23
2023-08-11T00:16:17.628Z,5.20
2023-08-11T00:18:44.437Z,11.85
2023-08-11T00:21:11.462Z,8.77
2023-08-11T00:23:40.758Z,6.93
2023-08-11T00:26:07.782Z,5.37
2023-08-11T00:28:34.578Z,5.30
2023-08-11T00:31:01.376Z,4.97
2023-08-11T00:33:28.119Z,4.97
2023-08-11T00:35:54.987Z,4.75
2023-08-11T00:38:27.385Z,4.60
2023-08-11T00:40:54.138Z,4.90
2023-08-11T00:43:20.815Z,6.45
2023-08-11T00:45:50.275Z,10.23
2023-08-11T00:48:17.274Z,6.95
2023-08-11T00:50:44.197Z,5.30
2023-08-11T00:53:11.472Z,5.20
2023-08-11T00:55:38.949Z,4.90
2023-08-11T00:58:07.104Z,5.20
2023-08-11T01:00:34.024Z,5.40
2023-08-11T01:03:00.835Z,5.50
2023-08-11T01:05:31.951Z,5.35
2023-08-11T01:08:35.437Z,5.60
2023-08-11T01:11:18.651Z,5.38
2023-08-11T01:13:53.624Z,5.00
2023-08-11T01:16:23.433Z,4.90
2023-08-11T01:18:51.430Z,4.95
2023-08-11T01:21:18.982Z,4.88
2023-08-11T01:23:45.936Z,5.10
2023-08-11T01:26:12.974Z,6.25
2023-08-11T01:28:41.883Z,7.73
2023-08-11T01:31:09.721Z,6.03
2023-08-11T01:33:36.483Z,5.90
2023-08-11T01:36:03.264Z,5.90
2023-08-11T01:38:30.107Z,5.40
2023-08-11T01:40:58.844Z,5.47
2023-08-11T01:43:27.352Z,5.50
2023-08-11T01:45:54.771Z,5.35
2023-08-11T01:48:22.565Z,5.25
2023-08-11T01:50:49.485Z,5.40
2023-08-11T01:53:16.434Z,5.60
2023-08-11T01:55:44.183Z,5.43
2023-08-11T01:58:11.218Z,5.18
2023-08-11T02:00:37.901Z,5.35
2023-08-11T02:03:04.816Z,5.20
2023-08-11T02:05:31.699Z,5.17
2023-08-11T02:07:59.411Z,5.15
2023-08-11T02:10:26.137Z,5.45
2023-08-11T02:12:52.891Z,5.30
2023-08-11T02:15:20.029Z,5.72
2023-08-11T02:17:46.879Z,5.40
2023-08-11T02:20:23.214Z,5.70
2023-08-11T02:22:51.026Z,5.68
2023-08-11T02:25:18.075Z,5.38
2023-08-11T02:27:45.250Z,5.70
2023-08-11T02:30:12.851Z,5.70
2023-08-11T02:32:41.141Z,5.47
2023-08-11T02:35:08.399Z,5.93
2023-08-11T02:37:35.280Z,6.20
2023-08-11T02:40:02.077Z,6.00
2023-08-11T02:42:28.870Z,5.73
2023-08-11T02:44:55.510Z,5.40
2023-08-11T02:47:22.264Z,6.00
2023-08-11T02:49:49.127Z,5.47
2023-08-11T02:52:16.080Z,5.47
2023-08-11T02:54:43.027Z,6.70
2023-08-11T02:57:09.765Z,7.28
2023-08-11T02:59:36.526Z,6.60
2023-08-11T03:02:03.438Z,6.57
2023-08-11T03:04:30.322Z,5.70
2023-08-11T03:06:57.100Z,5.50
2023-08-11T03:09:23.839Z,5.50
2023-08-11T03:11:50.650Z,5.63
2023-08-11T03:14:18.262Z,5.60
2023-08-11T03:16:45.835Z,5.93
2023-08-11T03:19:12.743Z,6.20
2023-08-11T03:21:39.827Z,5.95
2023-08-11T03:24:07.189Z,5.35
2023-08-11T03:26:34.320Z,5.75
2023-08-11T03:29:01.016Z,5.72
2023-08-11T03:31:27.732Z,6.10
2023-08-11T03:33:54.528Z,5.97
2023-08-11T03:36:21.549Z,5.95
2023-08-11T03:38:49.409Z,6.50
2023-08-11T03:41:16.189Z,6.07
2023-08-11T03:43:42.994Z,5.67
2023-08-11T03:46:09.931Z,5.93
2023-08-11T03:48:36.880Z,5.78
2023-08-11T03:51:03.844Z,6.40
2023-08-11T03:53:35.001Z,5.78
2023-08-11T03:56:01.938Z,5.90
2023-08-11T03:58:28.637Z,6.22
2023-08-11T04:00:56.223Z,6.07
2023-08-11T04:03:23.667Z,5.65
2023-08-11T04:05:50.581Z,6.10
2023-08-11T04:08:18.054Z,6.10
2023-08-11T04:10:44.772Z,6.53
2023-08-11T04:13:11.597Z,6.13
2023-08-11T04:15:40.121Z,6.68
2023-08-11T04:18:06.945Z,5.88
2023-08-11T04:20:34.598Z,5.93
2023-08-11T04:23:01.479Z,5.70
2023-08-11T04:25:28.195Z,5.82
2023-08-11T04:27:56.841Z,5.85
2023-08-11T04:30:24.230Z,5.90
2023-08-11T04:32:51.966Z,6.33
2023-08-11T04:35:18.856Z,6.18
2023-08-11T04:37:45.942Z,6.32
2023-08-11T04:40:15.194Z,6.10
2023-08-11T04:42:42.062Z,6.20
2023-08-11T04:45:10.176Z,6.40
2023-08-11T04:47:37.494Z,6.60
2023-08-11T04:50:04.773Z,6.25
2023-08-11T04:52:31.487Z,6.07
2023-08-11T04:54:58.952Z,6.35
2023-08-11T04:57:25.758Z,5.70
2023-08-11T04:59:52.501Z,6.10
2023-08-11T05:02:19.454Z,5.85
2023-08-11T05:04:46.120Z,5.93
2023-08-11T05:07:12.809Z,6.47
2023-08-11T05:09:39.610Z,6.13
2023-08-11T05:12:06.767Z,6.30
2023-08-11T05:14:33.791Z,6.30
2023-08-11T05:17:03.819Z,6.60
2023-08-11T05:19:32.443Z,6.57
2023-08-11T05:21:59.252Z,6.10
2023-08-11T05:24:26.023Z,6.18
2023-08-11T05:26:52.809Z,6.75
2023-08-11T05:29:19.595Z,6.45
2023-08-11T05:31:46.409Z,6.70
2023-08-11T05:34:13.345Z,6.53
2023-08-11T05:36:40.047Z,6.65
2023-08-11T05:39:09.321Z,6.57
2023-08-11T05:41:36.116Z,6.18
2023-08-11T05:44:02.980Z,6.50
2023-08-11T05:46:32.131Z,5.70
2023-08-11T05:48:58.893Z,6.50
2023-08-11T05:51:25.975Z,6.43
2023-08-11T05:53:54.433Z,6.35
2023-08-11T05:56:21.500Z,7.05
2023-08-11T05:58:48.648Z,6.77
2023-08-11T06:01:15.459Z,6.72
2023-08-11T06:03:42.252Z,6.70
2023-08-11T06:06:09.040Z,7.20
2023-08-11T06:08:35.789Z,7.15
2023-08-11T06:11:02.595Z,7.03
2023-08-11T06:13:29.468Z,6.25
2023-08-11T06:15:56.234Z,6.30
2023-08-11T06:18:23.023Z,5.55
2023-08-11T06:20:50.621Z,5.22
2023-08-11T06:23:18.056Z,5.83
2023-08-11T06:25:44.848Z,5.53
2023-08-11T06:28:11.579Z,5.03
2023-08-11T06:30:38.827Z,5.22
2023-08-11T06:33:06.045Z,5.20
2023-08-11T06:35:33.618Z,4.90
2023-08-11T06:38:00.674Z,5.32
2023-08-11T06:40:27.573Z,5.22
2023-08-11T06:42:54.339Z,4.95
2023-08-11T06:45:21.109Z,4.32
2023-08-11T06:47:47.977Z,5.20
2023-08-11T06:50:14.851Z,5.10
2023-08-11T06:52:41.589Z,4.82
2023-08-11T06:55:08.597Z,5.32
2023-08-11T06:57:36.821Z,4.85
2023-08-11T07:00:05.772Z,5.40
2023-08-11T07:02:32.478Z,4.60
2023-08-11T07:04:59.240Z,5.20
2023-08-11T07:07:26.026Z,4.88
2023-08-11T07:09:52.761Z,4.80
2023-08-11T07:12:19.410Z,4.90
2023-08-11T07:14:46.278Z,4.70
2023-08-11T07:17:13.130Z,4.85
2023-08-11T07:19:40.035Z,4.70
2023-08-11T07:22:06.776Z,4.55
2023-08-11T07:24:33.615Z,4.10
2023-08-11T07:27:00.875Z,3.88
2023-08-11T07:29:27.582Z,3.95
2023-08-11T07:31:54.341Z,4.10
2023-08-11T07:34:21.061Z,3.70
2023-08-11T07:36:48.134Z,4.00
2023-08-11T07:39:22.606Z,3.90
2023-08-11T07:41:50.979Z,3.90
2023-08-11T07:44:18.018Z,3.97
2023-08-11T07:46:44.832Z,3.90
2023-08-11T07:49:11.641Z,3.93
2023-08-11T07:51:40.786Z,3.80
2023-08-11T07:54:07.890Z,3.88
2023-08-11T07:56:35.068Z,3.78
2023-08-11T07:59:01.963Z,4.10
2023-08-11T08:01:29.092Z,3.97
2023-08-11T08:03:57.070Z,4.00
2023-08-11T08:06:23.944Z,3.55
2023-08-11T08:08:50.701Z,3.80
2023-08-11T08:11:17.876Z,3.85
2023-08-11T08:13:44.774Z,3.60
2023-08-11T08:16:11.620Z,3.70
2023-08-11T08:18:38.387Z,3.58
2023-08-11T08:21:05.154Z,3.80
2023-08-11T08:23:31.903Z,3.70
2023-08-11T08:25:58.842Z,3.53
2023-08-11T08:28:25.983Z,3.53
2023-08-11T08:30:53.126Z,4.00
2023-08-11T08:33:19.980Z,3.80
2023-08-11T08:35:46.925Z,3.67
2023-08-11T08:38:13.626Z,3.70
2023-08-11T08:40:41.044Z,3.70
2023-08-11T08:43:09.927Z,3.50
2023-08-11T08:45:38.700Z,3.80
2023-08-11T08:48:09.817Z,3.80
2023-08-11T08:50:38.854Z,3.50
2023-08-11T08:53:05.894Z,3.67
2023-08-11T08:55:33.343Z,3.72
2023-08-11T08:58:01.933Z,4.10
2023-08-11T09:00:29.456Z,4.18
2023-08-11T09:02:57.717Z,3.47
2023-08-11T09:05:25.660Z,3.60
2023-08-11T09:07:52.423Z,3.47
2023-08-11T09:10:19.668Z,3.42
2023-08-11T09:12:46.372Z,3.50
2023-08-11T09:15:13.808Z,3.70
2023-08-11T09:17:41.397Z,3.40
2023-08-11T09:20:11.828Z,3.40
2023-08-11T09:22:39.622Z,3.70
2023-08-11T09:25:07.242Z,3.40
2023-08-11T09:27:34.513Z,3.40
2023-08-11T09:30:01.403Z,3.42
2023-08-11T09:32:28.331Z,3.38
2023-08-11T09:34:55.270Z,3.38
2023-08-11T09:37:22.052Z,3.40
2023-08-11T09:39:57.065Z,3.20
2023-08-11T09:42:27.540Z,3.20
2023-08-11T09:44:54.394Z,3.10
2023-08-11T09:47:23.209Z,3.25
2023-08-11T09:49:50.191Z,2.90
2023-08-11T09:52:18.554Z,3.10
2023-08-11T09:54:45.876Z,3.20
2023-08-11T09:57:14.614Z,3.10
2023-08-11T09:59:45.656Z,2.90
2023-08-11T10:02:18.674Z,2.92
2023-08-11T10:04:58.346Z,2.80
2023-08-11T10:07:35.229Z,3.10
2023-08-11T10:10:09.706Z,3.10
2023-08-11T10:12:41.892Z,2.70
2023-08-11T10:15:12.298Z,3.00
2023-08-11T10:17:39.998Z,3.10
2023-08-11T10:20:08.632Z,2.97
2023-08-11T10:22:35.551Z,2.88
2023-08-11T10:25:05.672Z,3.10
2023-08-11T10:27:32.848Z,2.90
2023-08-11T10:30:00.728Z,2.93
2023-08-11T10:32:32.567Z,3.00
2023-08-11T10:34:59.314Z,2.50
2023-08-11T10:37:36.845Z,2.67
2023-08-11T10:40:08.796Z,2.10
2023-08-11T10:42:40.375Z,2.17
2023-08-11T10:45:15.839Z,2.28
2023-08-11T10:47:53.641Z,2.08
2023-08-11T10:50:22.280Z,2.20
2023-08-11T10:53:05.636Z,2.00
2023-08-11T10:55:37.448Z,2.50
2023-08-11T10:58:15.446Z,2.92
2023-08-11T11:00:42.664Z,2.72
2023-08-11T11:03:10.730Z,2.80
2023-08-11T11:05:37.469Z,2.80
2023-08-11T11:08:04.392Z,3.03
2023-08-11T11:10:43.849Z,3.20
2023-08-11T11:13:15.560Z,2.97
2023-08-11T11:15:42.425Z,3.10
2023-08-11T11:18:09.251Z,3.05
2023-08-11T11:20:35.995Z,3.50
2023-08-11T11:23:03.796Z,3.80
2023-08-11T11:25:30.511Z,3.80
2023-08-11T11:27:57.298Z,3.80
2023-08-11T11:30:24.394Z,3.30
2023-08-11T11:32:51.135Z,3.00
2023-08-11T11:35:18.761Z,3.20
2023-08-11T11:37:45.984Z,3.50
2023-08-11T11:40:13.231Z,3.70
2023-08-11T11:42:40.093Z,3.30
2023-08-11T11:45:08.449Z,3.47
2023-08-11T11:47:35.507Z,3.05
2023-08-11T11:50:08.480Z,3.40
2023-08-11T11:52:37.674Z,3.40
2023-08-11T11:55:07.454Z,3.58
2023-08-11T11:57:35.149Z,3.77
2023-08-11T12:00:04.210Z,4.20
2023-08-11T12:02:31.449Z,3.38
2023-08-11T12:04:58.766Z,3.50
2023-08-11T12:07:33.203Z,3.97
2023-08-11T12:10:00.629Z,3.10
2023-08-11T12:12:28.423Z,3.88
2023-08-11T12:15:02.222Z,3.90
2023-08-11T12:17:36.751Z,3.88
2023-08-11T12:20:11.318Z,3.70
2023-08-11T12:22:38.108Z,3.90
2023-08-11T12:25:05.210Z,3.80
2023-08-11T12:27:32.007Z,3.65
2023-08-11T12:29:58.817Z,3.50
2023-08-11T12:32:25.522Z,3.50
2023-08-11T12:34:52.610Z,3.80
2023-08-11T12:37:19.400Z,4.22
2023-08-11T12:39:46.058Z,3.60
2023-08-11T12:42:13.297Z,4.00
2023-08-11T12:44:40.656Z,4.05
2023-08-11T12:47:07.644Z,3.90
2023-08-11T12:49:34.506Z,4.97
2023-08-11T12:52:01.320Z,5.10
2023-08-11T12:54:27.978Z,8.00
2023-08-11T12:56:54.726Z,5.18
2023-08-11T12:59:21.460Z,3.90
2023-08-11T13:01:48.252Z,3.83
2023-08-11T13:04:15.141Z,4.05
2023-08-11T13:06:41.800Z,3.70
2023-08-11T13:09:08.737Z,3.45
2023-08-11T13:11:35.603Z,3.37
2023-08-11T13:14:03.714Z,3.65
2023-08-11T13:16:30.581Z,3.80
2023-08-11T13:18:57.416Z,3.00
2023-08-11T13:21:24.307Z,3.50
2023-08-11T13:23:51.199Z,3.60
2023-08-11T13:26:18.060Z,3.80
2023-08-11T13:28:44.834Z,3.50
2023-08-11T13:31:11.541Z,3.33
2023-08-11T13:33:39.059Z,3.47
2023-08-11T13:36:06.244Z,3.40
2023-08-11T13:38:33.135Z,3.60
2023-08-11T13:40:59.930Z,3.25
2023-08-11T13:43:26.674Z,3.38
2023-08-11T13:45:54.617Z,3.47
2023-08-11T13:48:24.755Z,3.57
2023-08-11T13:50:52.543Z,3.22
2023-08-11T13:53:19.391Z,3.28
2023-08-11T13:55:46.155Z,3.40
2023-08-11T13:58:13.246Z,3.72
2023-08-11T14:00:40.048Z,3.47
2023-08-11T14:03:07.178Z,3.35
2023-08-11T14:05:34.060Z,4.15
2023-08-11T14:08:00.849Z,4.28
2023-08-11T14:10:27.561Z,3.50
2023-08-11T14:12:54.718Z,3.40
2023-08-11T14:15:21.458Z,3.50
2023-08-11T14:17:48.239Z,3.10
2023-08-11T14:20:15.133Z,3.05
2023-08-11T14:22:41.918Z,3.60
2023-08-11T14:25:08.910Z,3.40
2023-08-11T14:27:35.730Z,3.30
2023-08-11T14:30:02.497Z,3.50
2023-08-11T14:32:29.466Z,3.50
2023-08-11T14:34:56.677Z,3.50
2023-08-11T14:37:23.457Z,3.50
2023-08-11T14:39:50.392Z,3.47
2023-08-11T14:42:17.735Z,3.10
2023-08-11T14:44:44.558Z,3.03
2023-08-11T14:47:15.159Z,4.20
2023-08-11T14:49:43.837Z,3.43
2023-08-11T14:52:11.897Z,3.38
2023-08-11T14:54:39.018Z,3.30
2023-08-11T14:57:06.627Z,3.30
2023-08-11T14:59:33.344Z,3.28
2023-08-11T15:02:00.144Z,3.40
2023-08-11T15:04:27.819Z,3.10
2023-08-11T15:06:54.784Z,3.20
2023-08-11T15:09:21.650Z,3.58
2023-08-11T15:11:49.301Z,3.08
2023-08-11T15:14:16.732Z,3.20
2023-08-11T15:16:43.618Z,3.20
2023-08-11T15:19:10.406Z,3.22
2023-08-11T15:21:37.236Z,3.20
2023-08-11T15:24:04.121Z,3.25
2023-08-11T15:26:30.853Z,3.30
2023-08-11T15:28:58.224Z,3.30
2023-08-11T15:31:25.094Z,3.20
2023-08-11T15:33:51.865Z,3.00
2023-08-11T15:36:18.627Z,3.20
2023-08-11T15:38:45.407Z,3.10
2023-08-11T15:41:12.146Z,3.20
2023-08-11T15:43:38.876Z,3.15
2023-08-11T15:46:05.867Z,3.38
2023-08-11T15:48:33.774Z,3.30
2023-08-11T15:51:00.552Z,3.33
2023-08-11T15:53:27.366Z,4.10
2023-08-11T15:55:54.566Z,3.72
2023-08-11T15:58:21.276Z,3.50
2023-08-11T16:00:49.272Z,3.47
2023-08-11T16:03:16.508Z,3.80
2023-08-11T16:05:43.902Z,3.47
2023-08-11T16:08:10.576Z,3.47
2023-08-11T16:10:37.950Z,3.53
2023-08-11T16:13:04.885Z,3.70
2023-08-11T16:15:32.192Z,3.20
2023-08-11T16:17:58.942Z,3.60
2023-08-11T16:20:25.821Z,3.90
2023-08-11T16:22:53.150Z,3.40
2023-08-11T16:26:50.098Z,3.60
2023-08-11T16:29:16.856Z,3.58
2023-08-11T16:31:43.739Z,3.60
2023-08-11T16:34:10.632Z,3.50
2023-08-11T16:36:37.352Z,3.53
2023-08-11T16:39:04.313Z,3.85
2023-08-11T16:41:31.063Z,3.80
2023-08-11T16:43:57.876Z,3.83
2023-08-11T16:46:24.742Z,3.90
2023-08-11T16:48:51.460Z,4.32
2023-08-11T16:51:18.188Z,3.80
2023-08-11T16:53:44.912Z,4.20
2023-08-11T16:56:11.736Z,3.70
2023-08-11T16:58:38.641Z,3.63
2023-08-11T17:01:06.089Z,3.70
2023-08-11T17:03:33.165Z,3.92
2023-08-11T17:05:59.989Z,3.80
2023-08-11T17:08:26.790Z,3.80
2023-08-11T17:10:53.517Z,3.90
2023-08-11T17:13:20.284Z,4.00
2023-08-11T17:15:46.979Z,4.50
2023-08-11T17:18:13.810Z,4.20
2023-08-11T17:20:40.614Z,4.10
2023-08-11T17:23:07.543Z,3.72
2023-08-11T17:25:34.503Z,4.10
2023-08-11T17:28:01.189Z,4.10
2023-08-11T17:30:30.776Z,4.05
2023-08-11T17:32:58.740Z,4.20
2023-08-11T17:35:26.070Z,4.15
2023-08-11T17:37:53.406Z,4.35
2023-08-11T17:40:20.134Z,5.05
2023-08-11T17:42:46.865Z,4.72
2023-08-11T17:45:13.727Z,4.40
2023-08-11T17:47:42.531Z,4.78
2023-08-11T17:50:09.659Z,4.70
2023-08-11T17:52:36.396Z,4.47
2023-08-11T17:55:03.269Z,4.50
2023-08-11T17:57:30.354Z,4.00
2023-08-11T17:59:57.114Z,4.32
2023-08-11T18:02:23.847Z,4.20
2023-08-11T18:04:50.554Z,3.90
2023-08-11T18:07:17.250Z,3.95
2023-08-11T18:09:44.870Z,4.10
2023-08-11T18:12:11.977Z,4.10
2023-08-11T18:14:44.194Z,4.00
2023-08-11T18:17:10.898Z,4.07
2023-08-11T18:19:37.591Z,4.55
2023-08-11T18:22:04.441Z,4.10
2023-08-11T18:24:31.216Z,4.47
2023-08-11T18:26:57.875Z,4.68
2023-08-11T18:29:24.554Z,4.35
2023-08-11T18:31:51.467Z,4.53
2023-08-11T18:34:18.254Z,5.00
2023-08-11T18:36:45.003Z,4.75
2023-08-11T18:39:12.840Z,4.40
2023-08-11T18:41:39.532Z,4.80
2023-08-11T18:44:06.390Z,4.60
2023-08-11T18:46:35.119Z,4.47
2023-08-11T18:49:05.029Z,4.50
2023-08-11T18:51:32.004Z,4.40
2023-08-11T18:53:59.138Z,4.32
2023-08-11T18:56:25.948Z,4.50
2023-08-11T18:58:52.668Z,4.17
2023-08-11T19:01:19.498Z,4.20
2023-08-11T19:03:46.528Z,4.10
2023-08-11T19:06:14.083Z,4.28
2023-08-11T19:08:40.955Z,4.32
2023-08-11T19:11:07.672Z,4.40
2023-08-11T19:13:34.430Z,4.13
2023-08-11T19:16:01.223Z,4.60
2023-08-11T19:18:28.222Z,4.70
2023-08-11T19:20:57.773Z,4.47
2023-08-11T19:23:24.486Z,4.80
2023-08-11T19:25:51.466Z,4.90
2023-08-11T19:28:18.309Z,4.95
2023-08-11T19:30:45.052Z,4.72
2023-08-11T19:33:11.900Z,5.38
2023-08-11T19:35:38.584Z,5.27
2023-08-11T19:38:05.681Z,5.47
2023-08-11T19:40:32.407Z,5.50
2023-08-11T19:42:59.202Z,5.57
2023-08-11T19:45:25.919Z,5.40
2023-08-11T19:47:52.662Z,5.10
2023-08-11T19:50:22.880Z,5.38
2023-08-11T19:52:49.734Z,5.50
2023-08-11T19:55:16.710Z,5.70
2023-08-11T19:57:43.446Z,5.28
2023-08-11T20:00:11.007Z,5.20
2023-08-11T20:02:37.738Z,6.10
2023-08-11T20:05:04.847Z,6.00
2023-08-11T20:07:31.578Z,5.63
2023-08-11T20:09:58.268Z,5.50
2023-08-11T20:12:24.962Z,5.10
2023-08-11T20:14:51.721Z,4.90
2023-08-11T20:17:18.571Z,5.00
2023-08-11T20:19:45.379Z,4.90
2023-08-11T20:22:12.117Z,4.72
2023-08-11T20:24:38.922Z,5.03
2023-08-11T20:27:05.714Z,5.18
2023-08-11T20:29:32.425Z,4.63
2023-08-11T20:31:59.237Z,5.15
2023-08-11T20:34:27.614Z,5.50
2023-08-11T20:36:54.368Z,5.50
2023-08-11T20:39:22.855Z,5.57
2023-08-11T20:41:50.985Z,5.65
2023-08-11T20:44:17.847Z,5.95
2023-08-11T20:46:44.623Z,5.50
2023-08-11T20:49:11.414Z,5.90
2023-08-11T20:51:38.166Z,5.95
2023-08-11T20:54:05.150Z,5.40
2023-08-11T20:56:32.070Z,5.57
2023-08-11T20:58:58.842Z,6.50
2023-08-11T21:01:25.762Z,6.23
2023-08-11T21:03:52.725Z,6.65
2023-08-11T21:06:20.213Z,6.60
2023-08-11T21:08:48.629Z,6.00
2023-08-11T21:11:15.861Z,6.03
2023-08-11T21:13:42.660Z,5.97
2023-08-11T21:16:09.630Z,5.97
2023-08-11T21:18:36.382Z,5.65
2023-08-11T21:21:03.086Z,5.32
2023-08-11T21:23:29.828Z,5.70
2023-08-11T21:25:57.027Z,5.60
2023-08-11T21:28:23.802Z,5.68
2023-08-11T21:31:03.817Z,5.70
2023-08-11T21:33:34.649Z,5.65
2023-08-11T21:36:01.382Z,5.90
2023-08-11T21:38:28.156Z,5.67
2023-08-11T21:40:54.885Z,5.72
2023-08-11T21:43:21.639Z,6.15
2023-08-11T21:45:48.362Z,5.95
2023-08-11T21:48:15.218Z,5.93
2023-08-11T21:50:42.018Z,5.73
2023-08-11T21:53:22.480Z,5.47
2023-08-11T21:55:50.403Z,5.60
2023-08-11T21:58:17.125Z,5.30
2023-08-11T22:00:45.098Z,5.00
2023-08-11T22:03:12.151Z,5.30
2023-08-11T22:05:39.074Z,4.95
2023-08-11T22:08:06.116Z,5.50
2023-08-11T22:10:32.880Z,5.95
2023-08-11T22:12:59.702Z,5.72
2023-08-11T22:15:26.475Z,5.50
2023-08-11T22:17:54.804Z,5.55
2023-08-11T22:20:22.128Z,6.18
2023-08-11T22:22:48.851Z,6.22
2023-08-11T22:25:16.151Z,6.03
2023-08-11T22:27:43.183Z,6.60
2023-08-11T22:30:10.296Z,5.75
2023-08-11T22:32:37.023Z,5.88
2023-08-11T22:35:04.173Z,6.45
2023-08-11T22:37:31.092Z,6.35
2023-08-11T22:39:57.780Z,6.33
2023-08-11T22:42:26.430Z,6.07
2023-08-11T22:44:55.162Z,6.40
2023-08-11T22:47:23.451Z,8.23
2023-08-11T22:49:50.700Z,7.45
2023-08-11T22:52:18.803Z,6.87
2023-08-11T22:54:45.555Z,6.70
2023-08-11T22:57:12.495Z,6.80
2023-08-11T22:59:39.466Z,6.18
2023-08-11T23:02:06.329Z,6.15
2023-08-11T23:04:33.125Z,5.87
2023-08-11T23:06:59.856Z,6.50
2023-08-11T23:09:26.629Z,7.38
2023-08-11T23:11:54.377Z,7.57
2023-08-11T23:14:21.072Z,5.90
2023-08-11T23:16:47.760Z,6.00
2023-08-11T23:19:14.448Z,6.22
2023-08-11T23:21:41.099Z,6.10
2023-08-11T23:24:08.281Z,6.00
2023-08-11T23:26:34.964Z,6.38
2023-08-11T23:29:01.704Z,6.00
2023-08-11T23:31:28.479Z,5.72
2023-08-11T23:33:55.193Z,6.38
2023-08-11T23:36:21.859Z,6.38
2023-08-11T23:38:48.961Z,6.10
2023-08-11T23:41:15.694Z,6.00
2023-08-11T23:43:42.422Z,5.95
2023-08-11T23:46:14.676Z,6.00
2023-08-11T23:48:45.023Z,6.45
2023-08-11T23:51:11.996Z,6.57
2023-08-11T23:53:38.710Z,6.20
2023-08-11T23:56:05.446Z,6.30
2023-08-11T23:58:32.164Z,5.90
